createdAt,value
2018-04-15T00:01:51.739Z,147.53
2018-04-15T00:04:20.255Z,135.57
2018-04-15T00:06:48.337Z,155.07
2018-04-15T00:09:14.810Z,163.93
2018-04-15T00:11:41.207Z,171.67
2018-04-15T00:14:07.590Z,159.17
2018-04-15T00:16:34.799Z,195.47
2018-04-15T00:19:08.107Z,168.47
2018-04-15T00:21:35.763Z,173.17
2018-04-15T00:24:02.791Z,148.37
2018-04-15T00:26:30.340Z,128.83
2018-04-15T00:28:57.658Z,146.77
2018-04-15T00:31:24.466Z,140.17
2018-04-15T00:33:51.311Z,134.10
2018-04-15T00:36:17.883Z,136.93
2018-04-15T00:38:44.250Z,134.10
2018-04-15T00:41:10.695Z,142.87
2018-04-15T00:43:37.038Z,124.80
2018-04-15T00:46:03.453Z,116.00
2018-04-15T00:48:30.197Z,128.90
2018-04-15T00:50:56.541Z,127.40
2018-04-15T00:53:22.939Z,111.70
2018-04-15T00:55:49.332Z,132.07
2018-04-15T00:58:15.787Z,126.93
2018-04-15T01:00:42.378Z,133.33
2018-04-15T01:03:09.545Z,154.30
2018-04-15T01:05:36.075Z,122.97
2018-04-15T01:08:02.567Z,120.67
2018-04-15T01:10:29.132Z,132.90
2018-04-15T01:12:55.567Z,135.00
2018-04-15T01:15:22.760Z,138.80
2018-04-15T01:17:49.525Z,142.53
2018-04-15T01:20:15.958Z,139.83
2018-04-15T01:22:42.356Z,139.13
2018-04-15T01:25:09.075Z,147.83
2018-04-15T01:27:36.288Z,137.03
2018-04-15T01:30:02.732Z,144.87
2018-04-15T01:32:29.608Z,155.73
2018-04-15T01:34:56.770Z,158.23
2018-04-15T01:37:23.678Z,153.13
2018-04-15T01:39:50.309Z,135.87
2018-04-15T01:42:16.953Z,137.67
2018-04-15T01:44:44.455Z,128.27
2018-04-15T01:47:10.970Z,121.17
2018-04-15T01:49:38.641Z,133.37
2018-04-15T01:52:05.102Z,123.17
2018-04-15T01:54:31.567Z,129.03
2018-04-15T01:56:59.439Z,136.03
2018-04-15T01:59:26.175Z,136.60
2018-04-15T02:01:52.623Z,115.73
2018-04-15T02:04:19.039Z,126.33
2018-04-15T02:06:45.699Z,121.87
2018-04-15T02:09:12.605Z,110.60
2018-04-15T02:11:41.326Z,134.33
2018-04-15T02:14:07.678Z,136.83
2018-04-15T02:16:34.034Z,122.80
2018-04-15T02:19:00.429Z,127.77
2018-04-15T02:21:28.492Z,125.47
2018-04-15T02:23:54.835Z,115.17
2018-04-15T02:26:21.275Z,129.30
2018-04-15T02:28:48.786Z,125.53
2018-04-15T02:31:15.160Z,133.07
2018-04-15T02:33:42.004Z,127.00
2018-04-15T02:36:08.436Z,126.20
2018-04-15T02:38:35.598Z,118.53
2018-04-15T02:41:02.108Z,140.77
2018-04-15T02:43:29.228Z,133.90
2018-04-15T02:45:55.700Z,122.67
2018-04-15T02:48:22.281Z,112.50
2018-04-15T02:50:49.437Z,122.70
2018-04-15T02:53:16.734Z,123.80
2018-04-15T02:55:43.173Z,121.87
2018-04-15T02:58:09.593Z,123.83
2018-04-15T03:00:36.108Z,121.30
2018-04-15T03:03:02.539Z,130.57
2018-04-15T03:05:29.676Z,129.37
2018-04-15T03:07:56.957Z,121.13
2018-04-15T03:10:24.091Z,127.43
2018-04-15T03:12:50.568Z,119.17
2018-04-15T03:15:16.954Z,123.27
2018-04-15T03:17:44.119Z,117.20
2018-04-15T03:20:10.467Z,106.97
2018-04-15T03:22:37.012Z,119.40
2018-04-15T03:25:03.502Z,123.20
2018-04-15T03:27:29.925Z,139.93
2018-04-15T03:29:57.198Z,129.93
2018-04-15T03:32:23.597Z,123.93
2018-04-15T03:34:50.777Z,125.97
2018-04-15T03:37:17.555Z,124.97
2018-04-15T03:39:44.985Z,127.77
2018-04-15T03:42:11.642Z,125.70
2018-04-15T03:44:38.820Z,110.53
2018-04-15T03:47:05.894Z,128.23
2018-04-15T03:49:32.358Z,115.63
2018-04-15T03:52:04.837Z,124.30
2018-04-15T03:54:31.416Z,124.80
2018-04-15T03:56:57.867Z,134.73
2018-04-15T03:59:25.456Z,115.77
2018-04-15T04:01:51.984Z,111.37
2018-04-15T04:04:18.510Z,120.20
2018-04-15T04:06:44.967Z,127.70
2018-04-15T04:09:11.627Z,112.30
2018-04-15T04:11:38.045Z,133.60
2018-04-15T04:14:04.398Z,118.87
2018-04-15T04:16:31.242Z,111.73
2018-04-15T04:19:10.199Z,118.30
2018-04-15T04:24:51.938Z,114.40
2018-04-15T04:27:18.758Z,127.27
2018-04-15T04:29:45.929Z,133.20
2018-04-15T04:32:13.061Z,118.20
2018-04-15T04:34:39.554Z,116.67
2018-04-15T04:37:05.882Z,137.93
2018-04-15T04:39:33.059Z,143.10
2018-04-15T04:42:00.466Z,150.97
2018-04-15T04:44:27.254Z,146.53
2018-04-15T04:46:55.644Z,139.63
2018-04-15T04:49:23.922Z,147.90
2018-04-15T04:51:52.095Z,140.37
2018-04-15T04:54:19.560Z,156.00
2018-04-15T04:56:46.968Z,147.60
2018-04-15T04:59:13.447Z,164.57
2018-04-15T05:01:39.862Z,149.53
2018-04-15T05:04:07.099Z,166.70
2018-04-15T05:06:33.993Z,167.83
2018-04-15T05:09:01.643Z,159.60
2018-04-15T05:11:28.191Z,152.63
2018-04-15T05:13:54.998Z,143.10
2018-04-15T05:16:21.468Z,153.07
2018-04-15T05:18:47.924Z,159.90
2018-04-15T05:21:15.179Z,132.93
2018-04-15T05:23:41.757Z,129.63
2018-04-15T05:26:08.150Z,133.30
2018-04-15T05:28:35.690Z,143.00
2018-04-15T05:31:02.076Z,127.23
2018-04-15T05:33:29.292Z,114.80
2018-04-15T05:35:57.410Z,141.20
2018-04-15T05:38:23.939Z,117.87
2018-04-15T05:40:50.826Z,110.97
2018-04-15T05:43:17.511Z,116.50
2018-04-15T05:45:43.973Z,122.97
2018-04-15T05:48:10.745Z,122.83
2018-04-15T05:50:37.356Z,121.60
2018-04-15T05:53:05.574Z,119.87
2018-04-15T05:55:32.934Z,114.57
2018-04-15T05:57:59.514Z,119.10
2018-04-15T06:00:25.993Z,113.07
2018-04-15T06:02:52.987Z,108.07
2018-04-15T06:05:21.195Z,116.03
2018-04-15T06:07:48.564Z,99.63
2018-04-15T06:10:15.456Z,111.70
2018-04-15T06:12:41.888Z,112.53
2018-04-15T06:15:08.516Z,106.17
2018-04-15T06:17:36.115Z,104.77
2018-04-15T06:20:02.565Z,96.13
2018-04-15T06:22:30.081Z,86.93
2018-04-15T06:24:56.508Z,98.67
2018-04-15T06:27:24.455Z,90.70
2018-04-15T06:29:52.645Z,79.23
2018-04-15T06:32:20.613Z,85.23
2018-04-15T06:34:47.076Z,79.90
2018-04-15T06:37:15.135Z,85.53
2018-04-15T06:39:42.308Z,89.43
2018-04-15T06:42:08.688Z,82.57
2018-04-15T06:44:35.444Z,77.77
2018-04-15T06:47:01.927Z,82.83
2018-04-15T06:49:28.346Z,71.23
2018-04-15T06:51:55.108Z,85.37
2018-04-15T06:54:21.594Z,82.13
2018-04-15T06:56:48.160Z,70.53
2018-04-15T06:59:14.666Z,82.93
2018-04-15T07:01:41.683Z,76.70
2018-04-15T07:04:09.206Z,74.37
2018-04-15T07:06:35.539Z,73.90
2018-04-15T07:09:02.729Z,70.50
2018-04-15T07:11:29.570Z,72.67
2018-04-15T07:13:56.814Z,67.70
2018-04-15T07:16:23.316Z,70.30
2018-04-15T07:18:50.363Z,69.40
2018-04-15T07:21:17.478Z,72.97
2018-04-15T07:23:43.941Z,72.90
2018-04-15T07:26:11.843Z,74.30
2018-04-15T07:28:38.299Z,64.70
2018-04-15T07:31:05.731Z,74.10
2018-04-15T07:33:33.860Z,85.10
2018-04-15T07:36:00.348Z,73.43
2018-04-15T07:38:26.935Z,70.77
2018-04-15T07:40:54.055Z,68.00
2018-04-15T07:43:21.240Z,70.80
2018-04-15T07:45:47.730Z,80.17
2018-04-15T07:48:14.161Z,70.40
2018-04-15T07:50:40.579Z,65.07
2018-04-15T07:53:06.933Z,68.10
2018-04-15T07:55:33.379Z,63.57
2018-04-15T07:57:59.791Z,67.23
2018-04-15T08:00:27.021Z,76.83
2018-04-15T08:02:55.091Z,66.80
2018-04-15T08:05:22.654Z,73.53
2018-04-15T08:07:49.525Z,82.13
2018-04-15T08:10:15.933Z,62.70
2018-04-15T08:12:43.359Z,69.37
2018-04-15T08:15:10.267Z,71.40
2018-04-15T08:17:36.760Z,65.40
2018-04-15T08:20:03.948Z,66.43
2018-04-15T08:22:31.984Z,63.90
2018-04-15T08:24:58.351Z,68.57
2018-04-15T08:27:25.027Z,62.87
2018-04-15T08:29:51.739Z,67.30
2018-04-15T08:32:19.826Z,66.47
2018-04-15T08:34:46.449Z,59.33
2018-04-15T08:37:12.869Z,64.80
2018-04-15T08:39:39.635Z,63.93
2018-04-15T08:42:06.496Z,65.67
2018-04-15T08:44:33.405Z,67.97
2018-04-15T08:46:59.996Z,56.60
2018-04-15T08:49:27.364Z,59.40
2018-04-15T08:51:55.562Z,35.87
2018-04-15T08:54:23.511Z,51.70
2018-04-15T08:56:50.382Z,41.43
2018-04-15T08:59:17.943Z,41.17
2018-04-15T09:01:44.546Z,44.93
2018-04-15T09:04:11.111Z,36.50
2018-04-15T09:06:38.031Z,35.40
2018-04-15T09:09:05.569Z,33.07
2018-04-15T09:11:31.961Z,44.17
2018-04-15T09:13:59.120Z,37.50
2018-04-15T09:16:25.715Z,38.47
2018-04-15T09:18:53.366Z,42.27
2018-04-15T09:21:19.982Z,46.80
2018-04-15T09:23:48.284Z,48.57
2018-04-15T09:26:14.956Z,54.77
2018-04-15T09:28:43.107Z,55.30
2018-04-15T09:31:11.306Z,45.20
2018-04-15T09:33:37.911Z,50.50
2018-04-15T09:36:04.816Z,50.37
2018-04-15T09:38:31.284Z,49.40
2018-04-15T09:40:57.787Z,46.37
2018-04-15T09:43:24.570Z,48.43
2018-04-15T09:45:52.775Z,41.23
2018-04-15T09:48:21.423Z,56.57
2018-04-15T09:50:48.295Z,44.43
2018-04-15T09:53:14.907Z,60.23
2018-04-15T09:55:42.412Z,55.63
2018-04-15T09:58:10.051Z,51.07
2018-04-15T10:00:36.512Z,47.10
2018-04-15T10:03:03.111Z,53.23
2018-04-15T10:05:31.564Z,52.00
2018-04-15T10:08:00.078Z,51.90
2018-04-15T10:10:28.641Z,54.80
2018-04-15T10:12:55.649Z,51.30
2018-04-15T10:15:22.385Z,57.33
2018-04-15T10:17:50.515Z,56.73
2018-04-15T10:20:17.116Z,53.40
2018-04-15T10:22:43.563Z,49.27
2018-04-15T10:25:09.993Z,48.03
2018-04-15T10:27:36.403Z,50.20
2018-04-15T10:30:02.916Z,49.97
2018-04-15T10:32:31.474Z,53.37
2018-04-15T10:34:59.635Z,53.67
2018-04-15T10:37:27.946Z,53.47
2018-04-15T10:39:55.894Z,44.93
2018-04-15T10:42:22.538Z,42.17
2018-04-15T10:44:48.965Z,40.20
2018-04-15T10:47:16.940Z,42.50
2018-04-15T10:49:45.159Z,36.17
2018-04-15T10:52:12.692Z,39.47
2018-04-15T10:54:40.220Z,42.20
2018-04-15T10:57:06.848Z,38.13
2018-04-15T11:02:08.157Z,38.67
2018-04-15T11:04:35.940Z,47.03
2018-04-15T11:09:35.616Z,45.43
2018-04-15T11:12:03.834Z,46.63
2018-04-15T11:14:31.799Z,45.50
2018-04-15T11:16:58.696Z,42.00
2018-04-15T11:19:25.568Z,48.17
2018-04-15T11:21:52.814Z,53.03
2018-04-15T11:24:19.249Z,48.10
2018-04-15T11:26:45.754Z,52.00
2018-04-15T11:29:12.526Z,48.97
2018-04-15T11:31:40.077Z,47.50
2018-04-15T11:34:08.037Z,54.70
2018-04-15T11:36:34.940Z,55.33
2018-04-15T11:39:01.439Z,61.47
2018-04-15T11:41:28.657Z,55.40
2018-04-15T11:43:55.091Z,46.27
2018-04-15T11:46:22.723Z,59.63
2018-04-15T11:48:49.359Z,57.70
2018-04-15T11:51:16.089Z,54.33
2018-04-15T11:53:43.279Z,65.67
2018-04-15T11:56:12.374Z,50.60
2018-04-15T11:58:40.560Z,44.27
2018-04-15T12:01:08.397Z,46.13
2018-04-15T12:03:35.728Z,50.43
2018-04-15T12:06:02.243Z,46.90
2018-04-15T12:08:30.172Z,37.73
2018-04-15T12:10:56.621Z,48.37
2018-04-15T12:13:23.454Z,43.60
2018-04-15T12:15:49.893Z,39.13
2018-04-15T12:18:16.807Z,41.87
2018-04-15T12:20:43.384Z,43.33
2018-04-15T12:23:09.944Z,33.67
2018-04-15T12:25:36.609Z,35.87
2018-04-15T12:28:03.439Z,45.27
2018-04-15T12:30:30.640Z,44.63
2018-04-15T12:32:57.139Z,47.50
2018-04-15T12:35:24.438Z,44.80
2018-04-15T12:37:51.073Z,42.53
2018-04-15T12:40:17.494Z,39.77
2018-04-15T12:42:44.059Z,38.03
2018-04-15T12:45:13.680Z,38.87
2018-04-15T12:47:40.632Z,38.40
2018-04-15T12:50:07.165Z,34.87
2018-04-15T12:52:34.455Z,41.07
2018-04-15T12:55:02.402Z,42.17
2018-04-15T12:57:29.261Z,39.43
2018-04-15T12:59:56.280Z,43.83
2018-04-15T13:02:24.379Z,41.40
2018-04-15T13:04:51.784Z,42.43
2018-04-15T13:07:20.054Z,47.90
2018-04-15T13:09:46.470Z,34.43
2018-04-15T13:12:13.009Z,36.33
2018-04-15T13:14:41.965Z,42.80
2018-04-15T13:17:09.638Z,41.60
2018-04-15T13:19:36.165Z,42.37
2018-04-15T13:22:04.949Z,40.03
2018-04-15T13:24:31.520Z,45.07
2018-04-15T13:26:58.016Z,37.90
2018-04-15T13:29:25.110Z,43.20
2018-04-15T13:31:53.316Z,43.60
2018-04-15T13:34:21.995Z,47.10
2018-04-15T13:36:50.778Z,54.43
2018-04-15T13:39:17.727Z,43.43
2018-04-15T13:41:44.569Z,38.77
2018-04-15T13:44:11.965Z,40.33
2018-04-15T13:46:39.791Z,43.00
2018-04-15T13:49:06.301Z,44.23
2018-04-15T13:51:33.329Z,45.77
2018-04-15T13:54:00.089Z,42.00
2018-04-15T13:56:26.678Z,48.13
2018-04-15T13:58:54.907Z,48.20
2018-04-15T14:01:21.799Z,40.53
2018-04-15T14:03:48.312Z,48.00
2018-04-15T14:06:16.666Z,43.97
2018-04-15T14:08:43.446Z,43.20
2018-04-15T14:11:10.147Z,45.00
2018-04-15T14:13:37.708Z,39.77
2018-04-15T14:16:05.952Z,45.90
2018-04-15T14:18:33.824Z,46.60
2018-04-15T14:21:01.735Z,39.60
2018-04-15T14:23:28.692Z,37.17
2018-04-15T14:25:55.975Z,40.40
2018-04-15T14:28:24.123Z,43.50
2018-04-15T14:30:50.918Z,45.30
2018-04-15T14:33:17.519Z,46.57
2018-04-15T14:35:45.908Z,45.07
2018-04-15T14:38:12.822Z,41.67
2018-04-15T14:40:39.572Z,43.00
2018-04-15T14:43:08.046Z,45.90
2018-04-15T14:45:36.282Z,37.60
2018-04-15T14:48:02.999Z,42.07
2018-04-15T14:50:31.257Z,41.57
2018-04-15T14:52:58.261Z,41.87
2018-04-15T14:55:26.377Z,36.13
2018-04-15T14:57:55.835Z,37.30
2018-04-15T15:00:23.087Z,35.57
2018-04-15T15:02:49.806Z,42.20
2018-04-15T15:05:16.450Z,41.30
2018-04-15T15:07:44.962Z,45.23
2018-04-15T15:10:13.655Z,43.80
2018-04-15T15:12:40.633Z,42.70
2018-04-15T15:15:07.821Z,46.43
2018-04-15T15:17:34.685Z,49.30
2018-04-15T15:20:02.482Z,52.67
2018-04-15T15:22:29.839Z,49.87
2018-04-15T15:24:58.129Z,49.20
2018-04-15T15:27:27.060Z,55.87
2018-04-15T15:29:55.257Z,52.27
2018-04-15T15:32:22.097Z,47.30
2018-04-15T15:34:49.498Z,51.90
2018-04-15T15:37:16.795Z,51.53
2018-04-15T15:39:46.297Z,50.10
2018-04-15T15:42:12.979Z,63.80
2018-04-15T15:44:40.263Z,55.20
2018-04-15T15:47:08.616Z,66.23
2018-04-15T15:49:37.206Z,64.03
2018-04-15T15:52:04.052Z,59.63
2018-04-15T15:54:31.209Z,55.17
2018-04-15T15:56:58.517Z,57.70
2018-04-15T15:59:25.314Z,61.50
2018-04-15T16:01:52.466Z,59.27
2018-04-15T16:04:20.368Z,60.90
2018-04-15T16:06:47.719Z,63.23
2018-04-15T16:09:15.930Z,65.57
2018-04-15T16:11:42.923Z,58.27
2018-04-15T16:14:10.319Z,65.77
2018-04-15T16:16:36.886Z,58.30
2018-04-15T16:19:03.445Z,58.93
2018-04-15T16:21:31.278Z,62.27
2018-04-15T16:23:59.224Z,60.57
2018-04-15T16:26:25.670Z,62.17
2018-04-15T16:28:52.163Z,64.83
2018-04-15T16:31:19.367Z,61.00
2018-04-15T16:33:46.374Z,58.40
2018-04-15T16:36:14.525Z,63.37
2018-04-15T16:38:41.703Z,58.13
2018-04-15T16:41:08.285Z,60.63
2018-04-15T16:43:34.984Z,54.10
2018-04-15T16:46:01.625Z,54.00
2018-04-15T16:48:29.178Z,60.30
2018-04-15T16:50:56.039Z,53.63
2018-04-15T16:53:24.615Z,55.77
2018-04-15T16:55:51.880Z,54.73
2018-04-15T16:58:19.130Z,60.43
2018-04-15T17:00:47.494Z,57.47
2018-04-15T17:03:15.455Z,58.00
2018-04-15T17:05:43.936Z,52.13
2018-04-15T17:08:10.913Z,52.90
2018-04-15T17:10:39.250Z,51.37
2018-04-15T17:13:05.937Z,55.90
2018-04-15T17:15:33.182Z,53.40
2018-04-15T17:18:00.214Z,51.53
2018-04-15T17:20:28.454Z,47.03
2018-04-15T17:22:54.924Z,47.50
2018-04-15T17:25:23.217Z,43.60
2018-04-15T17:27:51.961Z,50.20
2018-04-15T17:30:18.815Z,49.10
2018-04-15T17:32:45.704Z,52.53
2018-04-15T17:35:12.135Z,50.07
2018-04-15T17:37:40.612Z,47.50
2018-04-15T17:40:07.834Z,46.90
2018-04-15T17:42:34.325Z,46.23
2018-04-15T17:45:01.110Z,46.83
2018-04-15T17:47:29.116Z,49.43
2018-04-15T17:49:55.968Z,47.20
2018-04-15T17:52:22.553Z,46.53
2018-04-15T17:54:49.337Z,49.27
2018-04-15T17:57:17.440Z,51.50
2018-04-15T17:59:45.595Z,53.13
2018-04-15T18:02:13.396Z,49.13
2018-04-15T18:04:41.103Z,57.77
2018-04-15T18:07:09.669Z,60.90
2018-04-15T18:09:36.631Z,69.40
2018-04-15T18:12:04.047Z,59.10
2018-04-15T18:14:31.724Z,61.60
2018-04-15T18:16:59.451Z,69.73
2018-04-15T18:19:26.550Z,72.67
2018-04-15T18:21:53.021Z,69.90
2018-04-15T18:24:20.692Z,69.47
2018-04-15T18:26:47.700Z,78.60
2018-04-15T18:29:14.319Z,67.97
2018-04-15T18:31:41.289Z,80.83
2018-04-15T18:34:09.667Z,77.17
2018-04-15T18:36:37.876Z,80.30
2018-04-15T18:39:05.637Z,77.57
2018-04-15T18:41:32.416Z,81.60
2018-04-15T18:43:59.082Z,80.23
2018-04-15T18:46:29.658Z,69.93
2018-04-15T18:48:57.676Z,89.83
2018-04-15T18:51:24.827Z,90.60
2018-04-15T18:53:51.532Z,90.40
2018-04-15T18:56:19.764Z,91.37
2018-04-15T18:58:46.804Z,83.80
2018-04-15T19:01:14.500Z,80.83
2018-04-15T19:03:41.177Z,78.80
2018-04-15T19:06:07.888Z,78.67
2018-04-15T19:08:35.476Z,86.00
2018-04-15T19:11:01.896Z,87.03
2018-04-15T19:13:29.600Z,89.97
2018-04-15T19:15:56.180Z,89.60
2018-04-15T19:18:23.575Z,88.00
2018-04-15T19:20:50.174Z,87.50
2018-04-15T19:23:16.590Z,91.27
2018-04-15T19:25:43.239Z,105.73
2018-04-15T19:28:10.321Z,89.37
2018-04-15T19:30:36.915Z,76.63
2018-04-15T19:33:04.941Z,82.27
2018-04-15T19:35:32.173Z,81.60
2018-04-15T19:38:01.772Z,95.70
2018-04-15T19:40:28.286Z,82.43
2018-04-15T19:45:31.578Z,72.87
2018-04-15T19:48:00.047Z,83.73
2018-04-15T19:50:26.540Z,86.43
2018-04-15T19:52:52.983Z,73.83
2018-04-15T19:55:20.320Z,85.63
2018-04-15T19:57:46.835Z,87.37
2018-04-15T20:00:13.253Z,88.80
2018-04-15T20:02:39.644Z,79.33
2018-04-15T20:05:06.142Z,84.13
2018-04-15T20:07:32.507Z,81.33
2018-04-15T20:09:59.065Z,74.27
2018-04-15T20:12:26.731Z,73.50
2018-04-15T20:14:54.246Z,79.03
2018-04-15T20:17:21.101Z,83.13
2018-04-15T20:19:47.818Z,77.43
2018-04-15T20:22:16.312Z,82.53
2018-04-15T20:24:44.248Z,75.60
2018-04-15T20:27:10.704Z,78.67
2018-04-15T20:29:37.251Z,93.27
2018-04-15T20:32:03.737Z,89.40
2018-04-15T20:34:31.086Z,90.63
2018-04-15T20:36:59.359Z,92.70
2018-04-15T20:39:25.852Z,89.00
2018-04-15T20:41:54.119Z,84.47
2018-04-15T20:44:20.746Z,90.73
2018-04-15T20:46:47.740Z,91.30
2018-04-15T20:49:14.371Z,83.30
2018-04-15T20:51:41.431Z,92.10
2018-04-15T20:54:09.016Z,86.43
2018-04-15T20:56:35.684Z,89.10
2018-04-15T20:59:02.153Z,104.53
2018-04-15T21:01:28.818Z,94.20
2018-04-15T21:03:55.643Z,83.70
2018-04-15T21:06:22.094Z,90.50
2018-04-15T21:08:48.578Z,93.57
2018-04-15T21:11:15.526Z,80.33
2018-04-15T21:13:42.746Z,96.37
2018-04-15T21:16:09.756Z,102.63
2018-04-15T21:18:37.918Z,89.30
2018-04-15T21:21:05.898Z,86.93
2018-04-15T21:23:33.478Z,91.27
2018-04-15T21:26:00.346Z,86.67
2018-04-15T21:28:26.798Z,98.77
2018-04-15T21:30:54.133Z,98.03
2018-04-15T21:33:20.827Z,92.00
2018-04-15T21:35:47.353Z,99.47
2018-04-15T21:38:13.862Z,106.53
2018-04-15T21:40:41.100Z,94.73
2018-04-15T21:43:07.949Z,87.10
2018-04-15T21:45:36.122Z,84.20
2018-04-15T21:48:02.652Z,76.87
2018-04-15T21:50:29.478Z,92.63
2018-04-15T21:52:57.050Z,85.73
2018-04-15T21:55:24.303Z,87.87
2018-04-15T21:57:50.756Z,76.33
2018-04-15T22:00:17.310Z,74.90
2018-04-15T22:02:44.452Z,80.67
2018-04-15T22:05:10.936Z,78.63
2018-04-15T22:07:37.726Z,69.67
2018-04-15T22:10:04.638Z,81.67
2018-04-15T22:12:31.111Z,66.17
2018-04-15T22:14:57.852Z,78.33
2018-04-15T22:17:25.162Z,75.70
2018-04-15T22:19:52.454Z,72.30
2018-04-15T22:22:19.368Z,76.23
2018-04-15T22:24:46.178Z,72.40
2018-04-15T22:27:12.668Z,72.17
2018-04-15T22:29:39.101Z,64.10
2018-04-15T22:32:07.108Z,80.50
2018-04-15T22:34:33.579Z,76.67
2018-04-15T22:37:00.225Z,81.53
2018-04-15T22:39:26.695Z,76.00
2018-04-15T22:41:53.750Z,79.20
2018-04-15T22:44:20.992Z,79.47
2018-04-15T22:46:49.185Z,72.87
2018-04-15T22:49:21.583Z,78.57
2018-04-15T22:51:49.195Z,72.87
2018-04-15T22:54:17.063Z,86.20
2018-04-15T22:56:44.012Z,74.47
2018-04-15T22:59:10.604Z,81.50
2018-04-15T23:01:37.685Z,89.57
2018-04-15T23:04:05.258Z,62.73
2018-04-15T23:06:32.109Z,87.77
2018-04-15T23:08:58.660Z,80.57
2018-04-15T23:11:27.358Z,85.93
2018-04-15T23:13:56.017Z,88.17
2018-04-15T23:16:23.348Z,101.00
2018-04-15T23:18:51.761Z,92.57
2018-04-15T23:21:19.117Z,89.63
2018-04-15T23:23:45.667Z,99.70
2018-04-15T23:26:13.311Z,86.33
2018-04-15T23:28:41.354Z,87.43
2018-04-15T23:31:08.003Z,89.80
2018-04-15T23:33:36.308Z,90.23
2018-04-15T23:36:02.862Z,86.77
2018-04-15T23:38:29.766Z,88.47
2018-04-15T23:40:58.585Z,91.87
2018-04-15T23:43:25.593Z,95.63
2018-04-15T23:45:56.890Z,99.97
2018-04-15T23:48:23.550Z,101.93
2018-04-15T23:50:50.090Z,97.57
2018-04-15T23:53:16.494Z,105.10
2018-04-15T23:55:43.632Z,92.40
2018-04-15T23:58:10.313Z,99.47
